Time;durP1;ratioP1;P1;durP2;ratioP2;P2;SDS_P1;SDS_P2;PMS_P1;PMS_P2;Temp;Humidity;BMP_temperature;BMP_pressure;BME280_temperature;BME280_humidity;BME280_pressure;Samples;Min_cycle;Max_cycle;Signal;HPM_P1;HPM_P2
2022/03/30 00:01:11;;;;;;;;;;;;;;;0.21;66.76;96104.44;6315103;28;20046;-65
2022/03/30 00:04:12;;;;;;;;;;;;;;;0.04;66.34;96096.44;6314732;28;20389;-64
2022/03/30 00:07:16;;;;;;;;;;;;;;;0.03;67.32;96099.91;6315753;28;20328;-63
2022/03/30 00:10:17;;;;;;;;;;;;;;;0.02;66.94;96098.22;6313846;28;19920;-64
2022/03/30 00:13:18;;;;;;;;;;;;;;;-0.03;67.54;96107.00;6313412;28;19926;-64
2022/03/30 00:16:19;;;;;;;;;;;;;;;-0.03;67.45;96122.53;6311629;28;19919;-64
2022/03/30 00:19:23;;;;;;;;;;;;;;;-0.15;68.01;96107.41;6314501;28;19924;-64
2022/03/30 00:22:29;;;;;;;;;;;;;;;-0.35;68.75;96094.34;6292708;28;19920;-65
2022/03/30 00:25:33;;;;;;;;;;;;;;;-0.53;69.25;96088.06;6307048;28;19920;-64
2022/03/30 00:28:34;;;;;;;;;;;;;;;-0.59;69.42;96089.13;6315995;28;20001;-64
2022/03/30 00:31:37;;;;;;;;;;;;;;;-0.50;69.70;96096.56;6314612;28;19920;-64
2022/03/30 00:34:42;;;;;;;;;;;;;;;-0.62;69.68;96117.66;6315397;28;19934;-64
2022/03/30 00:37:43;;;;;;;;;;;;;;;-0.57;70.03;96128.66;6314602;28;19920;-65
2022/03/30 00:40:44;;;;;;;;;;;;;;;-0.69;70.39;96118.72;6312464;28;20575;-64
2022/03/30 00:43:45;;;;;;;;;;;;;;;-0.73;70.03;96099.91;6317036;28;19920;-64
2022/03/30 00:46:49;;;;;;;;;;;;;;;-0.72;70.61;96100.75;6310579;28;19915;-65
2022/03/30 00:49:51;;;;;;;;;;;;;;;-0.62;70.29;96107.31;6313078;28;19924;-64
2022/03/30 00:52:56;;;;;;;;;;;;;;;-0.43;69.36;96099.75;6315074;28;19924;-63
2022/03/30 00:55:58;;;;;;;;;;;;;;;-0.55;69.67;96113.94;6316189;28;19931;-63
2022/03/30 00:59:02;;;;;;;;;;;;;;;-0.59;69.74;96099.44;6314947;28;19920;-63
2022/03/30 01:02:06;;;;;;;;;;;;;;;-0.66;69.75;96079.88;6312601;28;19920;-63
2022/03/30 01:05:07;;;;;;;;;;;;;;;-0.76;70.36;96078.50;6309382;28;20293;-64
2022/03/30 01:08:13;;;;;;;;;;;;;;;-0.90;70.59;96117.69;6311159;28;19920;-64
2022/03/30 01:11:15;;;;;;;;;;;;;;;-1.04;70.67;96105.22;6313487;28;19916;-63
2022/03/30 01:14:19;;;;;;;;;;;;;;;-1.23;71.21;96109.25;6311231;28;20298;-64
2022/03/30 01:17:20;;;;;;;;;;;;;;;-1.30;70.84;96108.59;6314726;28;19923;-64
2022/03/30 01:20:24;;;;;;;;;;;;;;;-1.37;70.76;96107.09;6309259;28;20302;-64
2022/03/30 01:23:25;;;;;;;;;;;;;;;-1.46;70.86;96126.28;6312932;28;19930;-64
2022/03/30 01:26:26;;;;;;;;;;;;;;;-1.52;70.87;96144.50;6304192;28;19981;-64
2022/03/30 01:32:47;;;;;;;;;;;;;;;-1.39;71.46;96140.69;6325681;28;20333;-64
2022/03/30 01:35:50;;;;;;;;;;;;;;;-1.45;71.38;96140.00;6321952;28;19920;-63
2022/03/30 01:38:54;;;;;;;;;;;;;;;-1.49;71.74;96136.69;6321061;28;19974;-64
2022/03/30 01:41:56;;;;;;;;;;;;;;;-1.70;71.82;96132.13;6314692;28;19926;-64
2022/03/30 01:44:59;;;;;;;;;;;;;;;-1.73;71.75;96145.94;6323682;28;19920;-64
2022/03/30 01:48:00;;;;;;;;;;;;;;;-1.85;71.74;96147.16;6316342;28;20308;-63
2022/03/30 01:51:01;;;;;;;;;;;;;;;-1.86;72.19;96160.94;6318962;28;19915;-64
2022/03/30 01:54:02;;;;;;;;;;;;;;;-2.11;72.08;96183.94;6322879;28;19926;-64
2022/03/30 01:57:04;;;;;;;;;;;;;;;-2.35;72.82;96188.00;6318444;28;19927;-64
2022/03/30 02:00:06;;;;;;;;;;;;;;;-2.52;73.02;96192.72;6319473;28;19927;-64
2022/03/30 02:03:08;;;;;;;;;;;;;;;-2.53;72.67;96191.03;6319805;27;19919;-64
2022/03/30 02:06:12;;;;;;;;;;;;;;;-2.56;72.67;96188.53;6320234;28;19924;-64
2022/03/30 02:09:14;;;;;;;;;;;;;;;-2.55;72.90;96185.94;6320137;28;19924;-64
2022/03/30 02:12:16;;;;;;;;;;;;;;;-2.69;74.50;96182.81;6318797;28;19927;-64
2022/03/30 02:15:20;;;;;;;;;;;;;;;-2.77;74.35;96171.88;6316547;28;20365;-64
2022/03/30 02:18:21;;;;;;;;;;;;;;;-2.72;74.97;96177.72;6320823;28;20012;-63
2022/03/30 02:21:24;;;;;;;;;;;;;;;-2.65;75.13;96193.91;6320147;28;19927;-64
2022/03/30 02:24:27;;;;;;;;;;;;;;;-2.52;74.84;96169.53;6311321;28;20373;-64
2022/03/30 02:27:28;;;;;;;;;;;;;;;-2.64;75.95;96169.84;6312082;28;19920;-64
2022/03/30 02:30:30;;;;;;;;;;;;;;;-2.63;76.17;96169.81;6316991;28;20293;-63
2022/03/30 02:33:31;;;;;;;;;;;;;;;-2.53;76.15;96217.63;6315643;28;20326;-63
2022/03/30 02:36:34;;;;;;;;;;;;;;;-2.41;76.02;96220.78;6318782;28;19920;-64
2022/03/30 02:39:38;;;;;;;;;;;;;;;-2.53;76.35;96229.66;6316149;28;20293;-64
2022/03/30 02:42:44;;;;;;;;;;;;;;;-2.42;75.96;96232.00;6316241;28;19920;-65
2022/03/30 02:45:48;;;;;;;;;;;;;;;-2.36;75.96;96247.28;6323210;28;20008;-64
2022/03/30 02:48:49;;;;;;;;;;;;;;;-2.43;76.29;96222.59;6317245;28;19924;-63
2022/03/30 02:51:50;;;;;;;;;;;;;;;-2.38;76.49;96226.72;6314527;28;20431;-64
2022/03/30 02:54:54;;;;;;;;;;;;;;;-2.26;75.79;96223.84;6320614;28;19919;-65
2022/03/30 02:57:57;;;;;;;;;;;;;;;-2.26;75.60;96229.00;6316691;28;19931;-64
2022/03/30 03:00:58;;;;;;;;;;;;;;;-2.19;75.79;96219.38;6312638;28;20089;-64
2022/03/30 03:04:02;;;;;;;;;;;;;;;-2.22;75.88;96234.06;6317281;28;20337;-64
2022/03/30 03:07:03;;;;;;;;;;;;;;;-2.01;75.89;96233.53;6319555;28;20289;-64
2022/03/30 03:10:04;;;;;;;;;;;;;;;-2.02;75.84;96226.69;6310434;28;19920;-64
2022/03/30 03:13:07;;;;;;;;;;;;;;;-1.92;75.39;96243.63;6309947;28;19924;-64
2022/03/30 03:16:10;;;;;;;;;;;;;;;-1.78;74.79;96234.66;6317602;28;19951;-65
2022/03/30 03:19:14;;;;;;;;;;;;;;;-1.72;75.14;96227.63;6309796;28;19921;-64
2022/03/30 03:22:15;;;;;;;;;;;;;;;-1.69;75.09;96208.63;6315622;28;19943;-64
2022/03/30 03:25:16;;;;;;;;;;;;;;;-1.63;74.67;96213.63;6319372;28;19920;-64
2022/03/30 03:28:17;;;;;;;;;;;;;;;-1.62;75.09;96269.47;6312427;28;20053;-64
2022/03/30 03:31:19;;;;;;;;;;;;;;;-1.52;74.39;96241.72;6321240;28;19915;-64
2022/03/30 03:34:20;;;;;;;;;;;;;;;-1.48;74.21;96244.16;6317240;28;19919;-64
2022/03/30 03:37:21;;;;;;;;;;;;;;;-1.42;74.57;96240.56;6314892;28;19919;-64
2022/03/30 03:40:22;;;;;;;;;;;;;;;-1.40;74.24;96234.47;6310457;28;19973;-63
2022/03/30 03:43:23;;;;;;;;;;;;;;;-1.39;74.25;96243.03;6302331;28;19920;-64
2022/03/30 03:46:27;;;;;;;;;;;;;;;-1.27;73.91;96252.22;6311314;28;19938;-64
2022/03/30 03:49:28;;;;;;;;;;;;;;;-1.23;74.03;96249.47;6313892;28;20030;-64
2022/03/30 03:52:31;;;;;;;;;;;;;;;-1.19;74.19;96233.03;6318016;28;19920;-64
2022/03/30 03:55:34;;;;;;;;;;;;;;;-1.03;73.72;96241.16;6315176;28;20352;-63
2022/03/30 03:58:37;;;;;;;;;;;;;;;-0.84;73.51;96241.47;6310510;28;20262;-64
2022/03/30 04:01:38;;;;;;;;;;;;;;;-0.80;73.53;96252.53;6314330;28;19928;-64
2022/03/30 04:04:44;;;;;;;;;;;;;;;-0.62;72.71;96235.63;6312785;28;19920;-64
2022/03/30 04:07:47;;;;;;;;;;;;;;;-0.41;72.43;96236.72;6308817;28;19924;-64
2022/03/30 04:10:50;;;;;;;;;;;;;;;-0.30;71.94;96232.03;6314052;28;19924;-64
2022/03/30 04:13:54;;;;;;;;;;;;;;;-0.14;72.37;96230.66;6314715;28;19926;-64
2022/03/30 04:17:00;;;;;;;;;;;;;;;0.07;71.77;96236.00;6313458;28;19940;-64
2022/03/30 04:20:05;;;;;;;;;;;;;;;0.22;71.21;96240.66;6314893;28;19920;-64
2022/03/30 04:23:11;;;;;;;;;;;;;;;0.39;70.84;96234.88;6313463;28;19981;-64
2022/03/30 04:26:12;;;;;;;;;;;;;;;0.60;69.85;96235.91;6314836;28;19927;-64
2022/03/30 04:29:16;;;;;;;;;;;;;;;0.62;70.41;96234.06;6305205;28;19920;-65
2022/03/30 04:32:17;;;;;;;;;;;;;;;0.65;70.90;96239.13;6310866;28;20031;-64
2022/03/30 04:35:24;;;;;;;;;;;;;;;0.63;70.66;96235.78;6316111;28;20296;-65
2022/03/30 04:38:25;;;;;;;;;;;;;;;0.79;71.08;96233.47;6313954;28;19920;-65
2022/03/30 04:41:26;;;;;;;;;;;;;;;0.74;71.48;96243.16;6314306;28;20029;-64
2022/03/30 04:44:27;;;;;;;;;;;;;;;0.73;72.45;96231.94;6314150;28;19920;-64
2022/03/30 04:47:32;;;;;;;;;;;;;;;1.13;72.27;96225.28;6315856;28;20006;-65
2022/03/30 04:50:33;;;;;;;;;;;;;;;1.54;71.30;96220.25;6316528;28;19926;-64
2022/03/30 04:53:36;;;;;;;;;;;;;;;1.78;70.58;96232.25;6319762;28;19924;-64
2022/03/30 04:56:42;;;;;;;;;;;;;;;1.99;70.39;96214.13;6299178;28;19928;-64
2022/03/30 04:59:46;;;;;;;;;;;;;;;2.45;69.21;96219.94;6314506;28;19920;-64
2022/03/30 05:02:50;;;;;;;;;;;;;;;2.52;68.75;96218.78;6320149;28;20290;-65
2022/03/30 05:05:52;;;;;;;;;;;;;;;2.49;69.50;96239.66;6324682;28;20385;-64
2022/03/30 05:08:55;;;;;;;;;;;;;;;2.45;69.74;96215.59;6323911;28;20309;-65
2022/03/30 05:11:58;;;;;;;;;;;;;;;2.53;69.59;96220.47;6325478;28;19942;-65
2022/03/30 05:15:02;;;;;;;;;;;;;;;2.73;69.90;96206.59;6325387;28;19920;-65
2022/03/30 05:18:05;;;;;;;;;;;;;;;3.03;69.65;96209.59;6325124;28;19920;-65
2022/03/30 05:21:09;;;;;;;;;;;;;;;3.65;68.33;96214.50;6325499;28;20381;-65
2022/03/30 05:24:10;;;;;;;;;;;;;;;4.26;66.27;96211.50;6323505;28;19926;-65
2022/03/30 05:27:16;;;;;;;;;;;;;;;4.51;64.95;96221.53;6325082;28;19924;-65
2022/03/30 05:30:25;;;;;;;;;;;;;;;5.04;63.36;96230.91;6325269;28;19924;-65
2022/03/30 05:33:26;;;;;;;;;;;;;;;5.77;62.04;96220.81;6325331;28;20278;-65
2022/03/30 05:36:30;;;;;;;;;;;;;;;5.98;60.04;96233.63;6325652;28;19920;-64
2022/03/30 05:39:31;;;;;;;;;;;;;;;5.69;59.95;96217.81;6325126;28;20388;-64
2022/03/30 05:42:35;;;;;;;;;;;;;;;5.30;61.33;96216.47;6324805;28;20297;-64
2022/03/30 05:45:36;;;;;;;;;;;;;;;5.70;61.44;96229.94;6324389;28;19920;-64
2022/03/30 05:48:42;;;;;;;;;;;;;;;5.70;60.28;96226.47;6324285;28;19943;-66
2022/03/30 05:51:46;;;;;;;;;;;;;;;5.08;61.43;96227.22;6320222;28;19920;-64
2022/03/30 05:54:49;;;;;;;;;;;;;;;4.57;63.26;96226.41;6320391;28;20393;-65
2022/03/30 05:57:52;;;;;;;;;;;;;;;4.38;63.88;96223.91;6314011;28;19920;-64
2022/03/30 06:00:58;;;;;;;;;;;;;;;4.38;63.97;96225.66;6316799;28;19920;-65
2022/03/30 06:04:02;;;;;;;;;;;;;;;4.01;64.70;96211.88;6323530;28;20258;-64
2022/03/30 06:07:04;;;;;;;;;;;;;;;4.14;65.30;96212.13;6318887;28;19989;-64
2022/03/30 06:10:05;;;;;;;;;;;;;;;4.30;64.69;96213.00;6318611;28;19920;-64
2022/03/30 06:13:11;;;;;;;;;;;;;;;4.33;64.14;96197.25;6322200;28;19919;-63
2022/03/30 06:16:15;;;;;;;;;;;;;;;4.04;65.15;96196.94;6321739;28;19924;-63
2022/03/30 06:19:16;;;;;;;;;;;;;;;4.01;64.57;96201.47;6313721;28;20285;-63
2022/03/30 06:22:17;;;;;;;;;;;;;;;4.00;65.01;96205.84;6313138;28;19920;-67
2022/03/30 06:25:22;;;;;;;;;;;;;;;4.21;64.62;96216.09;6319172;28;19926;-67
2022/03/30 06:28:26;;;;;;;;;;;;;;;5.44;62.80;96196.63;6316228;28;19919;-68
2022/03/30 06:31:31;;;;;;;;;;;;;;;7.38;57.31;96181.66;6316279;28;19920;-63
2022/03/30 06:34:32;;;;;;;;;;;;;;;9.99;49.09;96195.38;6319954;28;19981;-64
2022/03/30 06:37:35;;;;;;;;;;;;;;;12.06;44.18;96204.00;6323305;28;19920;-64
2022/03/30 06:40:39;;;;;;;;;;;;;;;13.36;38.72;96194.88;6323179;28;19919;-64
2022/03/30 06:43:42;;;;;;;;;;;;;;;14.06;37.25;96213.41;6322830;28;19920;-65
2022/03/30 06:46:46;;;;;;;;;;;;;;;14.51;36.53;96207.56;6323207;28;19920;-64
2022/03/30 06:49:48;;;;;;;;;;;;;;;15.07;34.93;96206.81;6323123;28;19920;-65
2022/03/30 06:52:51;;;;;;;;;;;;;;;14.74;34.69;96203.66;6318797;28;20022;-64
2022/03/30 06:55:53;;;;;;;;;;;;;;;15.19;34.56;96210.97;6322313;28;20010;-65
2022/03/30 06:58:54;;;;;;;;;;;;;;;15.53;33.99;96202.47;6322644;28;19927;-65
2022/03/30 07:01:58;;;;;;;;;;;;;;;16.16;32.25;96186.66;6322384;28;20616;-64
2022/03/30 07:05:00;;;;;;;;;;;;;;;16.23;31.95;96186.88;6319982;28;19919;-65
2022/03/30 07:11:23;;;;;;;;;;;;;;;16.52;31.53;96186.63;6317150;28;20320;-64
2022/03/30 07:14:24;;;;;;;;;;;;;;;16.83;31.56;96179.09;6315024;28;19923;-65
2022/03/30 07:17:25;;;;;;;;;;;;;;;18.40;29.72;96200.94;6319615;28;20450;-64
2022/03/30 07:20:32;;;;;;;;;;;;;;;19.15;27.29;96183.09;6316567;28;20300;-64
2022/03/30 07:23:33;;;;;;;;;;;;;;;19.37;27.63;96181.56;6319089;28;19927;-65
2022/03/30 07:26:34;;;;;;;;;;;;;;;20.10;26.07;96175.94;6317380;28;20403;-64
2022/03/30 07:29:38;;;;;;;;;;;;;;;20.63;25.43;96162.72;6322024;28;19926;-64
2022/03/30 07:32:43;;;;;;;;;;;;;;;20.54;24.71;96161.97;6321851;28;19916;-65
2022/03/30 07:35:47;;;;;;;;;;;;;;;19.66;25.64;96144.44;6322265;28;19981;-62
2022/03/30 07:38:50;;;;;;;;;;;;;;;18.99;26.77;96133.28;6316428;28;19923;-64
2022/03/30 07:41:51;;;;;;;;;;;;;;;18.89;26.93;96132.66;6318701;28;19920;-63
2022/03/30 07:44:55;;;;;;;;;;;;;;;19.39;25.93;96131.50;6315912;28;19920;-64
2022/03/30 07:47:56;;;;;;;;;;;;;;;19.39;25.77;96110.16;6316930;28;19927;-65
2022/03/30 07:50:57;;;;;;;;;;;;;;;19.33;26.16;96121.53;6320433;28;19920;-64
2022/03/30 07:54:00;;;;;;;;;;;;;;;19.37;25.83;96101.53;6321694;28;19994;-65
2022/03/30 07:57:02;;;;;;;;;;;;;;;18.52;26.72;96099.38;6321372;28;19920;-64
2022/03/30 08:00:05;;;;;;;;;;;;;;;18.04;27.19;96103.69;6321103;28;19920;-65
2022/03/30 08:03:08;;;;;;;;;;;;;;;17.61;27.71;96102.91;6320954;28;19920;-63
2022/03/30 08:06:10;;;;;;;;;;;;;;;17.43;28.08;96100.34;6320173;28;19927;-64
2022/03/30 08:09:13;;;;;;;;;;;;;;;17.31;28.13;96086.50;6321878;28;19920;-64
2022/03/30 08:12:15;;;;;;;;;;;;;;;16.83;28.96;96106.53;6321215;28;20290;-64
2022/03/30 08:15:16;;;;;;;;;;;;;;;16.34;29.62;96119.44;6320564;28;20282;-64
2022/03/30 08:18:19;;;;;;;;;;;;;;;16.32;29.98;96078.94;6320900;28;19920;-64
2022/03/30 08:24:46;;;;;;;;;;;;;;;16.77;29.10;96152.31;6318820;28;19942;-65
2022/03/30 08:27:49;;;;;;;;;;;;;;;16.55;29.17;96098.69;6321345;28;20440;-64
2022/03/30 08:30:50;;;;;;;;;;;;;;;15.97;30.16;96120.44;6320145;28;19935;-65
2022/03/30 08:33:51;;;;;;;;;;;;;;;15.47;30.94;96126.19;6320870;28;20449;-64
2022/03/30 08:36:52;;;;;;;;;;;;;;;15.22;31.23;96103.84;6320016;28;20020;-64
2022/03/30 08:39:53;;;;;;;;;;;;;;;15.13;31.45;96092.31;6320204;28;20308;-64
2022/03/30 08:42:57;;;;;;;;;;;;;;;15.30;31.15;96119.84;6320466;28;19920;-64
2022/03/30 08:46:00;;;;;;;;;;;;;;;15.45;30.97;96102.44;6320667;28;20500;-65
2022/03/30 08:49:04;;;;;;;;;;;;;;;15.24;31.20;96104.53;6320775;28;20052;-64
2022/03/30 08:52:07;;;;;;;;;;;;;;;14.76;32.03;96061.38;6319858;28;19919;-65
2022/03/30 08:55:08;;;;;;;;;;;;;;;14.44;32.66;96106.72;6320185;28;19920;-64
2022/03/30 08:58:09;;;;;;;;;;;;;;;14.19;33.18;96118.72;6320968;28;19919;-63
2022/03/30 09:01:14;;;;;;;;;;;;;;;14.06;33.47;96054.69;6320463;28;19919;-64
2022/03/30 09:04:16;;;;;;;;;;;;;;;14.12;33.41;96114.97;6320126;28;19920;-64
2022/03/30 09:07:19;;;;;;;;;;;;;;;14.07;33.53;96072.25;6320425;28;20386;-65
2022/03/30 09:10:21;;;;;;;;;;;;;;;14.29;33.10;96124.81;6320204;28;19920;-65
2022/03/30 09:13:23;;;;;;;;;;;;;;;12.97;35.53;96133.91;6320571;28;19920;-64
2022/03/30 09:16:35;;;;;;;;;;;;;;;11.61;38.22;96109.19;6320617;28;20296;-65
2022/03/30 09:19:40;;;;;;;;;;;;;;;11.08;39.19;96105.59;6320669;28;19919;-64
2022/03/30 09:22:45;;;;;;;;;;;;;;;10.84;39.85;96109.22;6319963;28;19927;-64
2022/03/30 09:25:47;;;;;;;;;;;;;;;10.38;41.28;96112.75;6319641;28;19920;-64
2022/03/30 09:28:52;;;;;;;;;;;;;;;11.12;39.69;96097.31;6320755;28;20397;-65
2022/03/30 09:31:54;;;;;;;;;;;;;;;11.80;38.65;96120.88;6320487;28;19990;-65
2022/03/30 09:34:59;;;;;;;;;;;;;;;11.83;38.63;96107.44;6320574;28;19920;-64
2022/03/30 09:38:02;;;;;;;;;;;;;;;12.85;36.43;96095.38;6320005;28;19927;-65
2022/03/30 09:41:04;;;;;;;;;;;;;;;13.86;34.26;96107.56;6319468;28;19927;-66
2022/03/30 09:44:05;;;;;;;;;;;;;;;13.86;33.89;96104.94;6319754;28;19931;-64
2022/03/30 09:47:06;;;;;;;;;;;;;;;14.05;33.82;96142.97;6319681;28;19920;-64
2022/03/30 09:50:09;;;;;;;;;;;;;;;13.69;33.77;96121.47;6322749;28;19926;-64
2022/03/30 09:53:14;;;;;;;;;;;;;;;13.17;34.73;96129.53;6325272;28;19919;-65
2022/03/30 09:56:17;;;;;;;;;;;;;;;12.69;35.44;96131.97;6324410;28;19947;-65
2022/03/30 09:59:28;;;;;;;;;;;;;;;11.78;37.29;96126.28;6324620;28;19970;-65
2022/03/30 10:02:40;;;;;;;;;;;;;;;11.86;37.34;96133.56;6324099;28;20301;-64
2022/03/30 10:05:41;;;;;;;;;;;;;;;11.59;37.77;96136.63;6324065;28;19927;-64
2022/03/30 10:08:46;;;;;;;;;;;;;;;10.07;41.17;96140.47;6324300;28;20014;-64
2022/03/30 10:11:52;;;;;;;;;;;;;;;8.50;45.26;96101.81;6323832;28;19923;-64
2022/03/30 10:14:54;;;;;;;;;;;;;;;7.81;47.05;96130.00;6323598;28;19919;-63
2022/03/30 10:17:55;;;;;;;;;;;;;;;7.46;47.46;96115.75;6323323;28;20285;-63
2022/03/30 10:21:04;;;;;;;;;;;;;;;7.29;47.96;96119.44;6323520;28;20092;-64
2022/03/30 10:24:05;;;;;;;;;;;;;;;6.77;49.84;96123.56;6323400;28;19920;-64
2022/03/30 10:27:11;;;;;;;;;;;;;;;6.63;49.96;96113.94;6323686;28;19920;-64
2022/03/30 10:30:22;;;;;;;;;;;;;;;6.61;49.70;96100.13;6324045;28;20385;-64
2022/03/30 10:33:32;;;;;;;;;;;;;;;6.86;49.55;96096.84;6322888;28;20420;-64
2022/03/30 10:36:38;;;;;;;;;;;;;;;6.75;50.25;96143.72;6323592;28;20385;-66
2022/03/30 10:39:55;;;;;;;;;;;;;;;6.83;50.03;96135.41;6323986;28;20010;-65
2022/03/30 10:42:58;;;;;;;;;;;;;;;6.68;51.42;96160.69;6323613;28;19920;-65
2022/03/30 10:46:03;;;;;;;;;;;;;;;6.72;50.49;96131.66;6323531;28;19919;-64
2022/03/30 10:49:24;;;;;;;;;;;;;;;6.78;50.63;96125.22;6322367;28;19932;-66
2022/03/30 10:52:25;;;;;;;;;;;;;;;6.84;50.54;96130.06;6322912;28;19927;-66
2022/03/30 10:55:27;;;;;;;;;;;;;;;7.09;49.87;96139.84;6322735;28;19927;-64
2022/03/30 10:58:28;;;;;;;;;;;;;;;6.86;50.47;96137.84;6322969;28;19926;-64
2022/03/30 11:01:31;;;;;;;;;;;;;;;6.52;51.21;96158.19;6323121;28;19927;-64
2022/03/30 11:04:32;;;;;;;;;;;;;;;6.45;51.68;96138.56;6322642;28;20308;-65
2022/03/30 11:07:36;;;;;;;;;;;;;;;6.90;51.09;96134.09;6323064;28;19920;-65
2022/03/30 11:10:48;;;;;;;;;;;;;;;7.21;50.09;96143.47;6323173;28;19920;-64
2022/03/30 11:14:08;;;;;;;;;;;;;;;7.45;48.95;96158.56;6322403;28;19947;-64
2022/03/30 11:17:30;;;;;;;;;;;;;;;7.42;49.26;96178.75;6323096;28;19920;-64
2022/03/30 11:20:34;;;;;;;;;;;;;;;7.00;50.60;96166.59;6321007;28;19920;-64
2022/03/30 11:23:38;;;;;;;;;;;;;;;6.55;51.88;96172.84;6322625;28;19920;-64
2022/03/30 11:26:48;;;;;;;;;;;;;;;6.23;53.15;96197.34;6322104;28;20393;-65
2022/03/30 11:29:54;;;;;;;;;;;;;;;5.93;53.88;96162.53;6322694;28;19919;-65
2022/03/30 11:33:00;;;;;;;;;;;;;;;5.74;54.84;96205.31;6322337;28;19923;-64
2022/03/30 11:36:04;;;;;;;;;;;;;;;5.64;54.98;96198.97;6322426;28;19924;-64
2022/03/30 11:39:09;;;;;;;;;;;;;;;5.50;55.72;96191.91;6321707;28;20300;-65
2022/03/30 11:42:10;;;;;;;;;;;;;;;5.26;56.62;96185.41;6321468;28;20385;-64
2022/03/30 11:45:13;;;;;;;;;;;;;;;5.04;57.09;96209.19;6321664;28;19926;-65
2022/03/30 11:48:17;;;;;;;;;;;;;;;4.83;58.15;96230.28;6321283;28;19919;-64
2022/03/30 11:51:26;;;;;;;;;;;;;;;4.60;58.84;96196.75;6321814;28;19919;-65
2022/03/30 11:54:30;;;;;;;;;;;;;;;4.39;59.36;96215.19;6321750;28;19943;-64
2022/03/30 11:57:37;;;;;;;;;;;;;;;4.47;59.35;96215.63;6321830;28;19923;-64
2022/03/30 12:00:42;;;;;;;;;;;;;;;4.40;59.91;96193.41;6321298;28;19920;-64
2022/03/30 12:03:50;;;;;;;;;;;;;;;4.49;59.39;96208.56;6321505;28;19920;-65
2022/03/30 12:06:52;;;;;;;;;;;;;;;4.59;59.28;96223.75;6319846;28;19919;-64
2022/03/30 12:09:57;;;;;;;;;;;;;;;4.61;59.37;96221.88;6320942;28;19920;-64
2022/03/30 12:12:59;;;;;;;;;;;;;;;4.79;59.02;96210.50;6320833;28;20312;-64
2022/03/30 12:16:07;;;;;;;;;;;;;;;5.46;57.75;96194.75;6320812;28;19912;-65
2022/03/30 12:19:15;;;;;;;;;;;;;;;6.06;55.25;96200.09;6321199;28;19920;-65
2022/03/30 12:22:16;;;;;;;;;;;;;;;6.12;54.77;96194.50;6320541;28;19920;-64
2022/03/30 12:25:18;;;;;;;;;;;;;;;6.30;54.09;96201.25;6320734;28;19927;-65
2022/03/30 12:28:29;;;;;;;;;;;;;;;6.38;53.51;96179.91;6320705;28;19927;-65
2022/03/30 12:31:59;;;;;;;;;;;;;;;6.46;53.54;96175.09;6320601;28;19920;-64
2022/03/30 12:35:11;;;;;;;;;;;;;;;6.70;52.76;96177.97;6317924;28;20030;-64
2022/03/30 12:38:15;;;;;;;;;;;;;;;6.77;52.84;96175.84;6320624;28;19920;-65
2022/03/30 12:41:22;;;;;;;;;;;;;;;6.91;52.46;96169.78;6321030;28;19920;-64
2022/03/30 12:44:26;;;;;;;;;;;;;;;7.17;51.94;96184.69;6320362;28;20339;-65
2022/03/30 12:47:34;;;;;;;;;;;;;;;7.37;50.35;96198.31;6320742;28;19920;-65
2022/03/30 12:50:36;;;;;;;;;;;;;;;7.09;51.12;96205.25;6320589;28;19927;-65
2022/03/30 12:53:45;;;;;;;;;;;;;;;6.47;52.46;96183.75;6320972;28;20393;-65
2022/03/30 12:56:46;;;;;;;;;;;;;;;6.16;53.05;96193.38;6320433;28;19920;-64
2022/03/30 12:59:52;;;;;;;;;;;;;;;6.13;53.31;96196.19;6320723;28;19966;-64
2022/03/30 13:03:03;;;;;;;;;;;;;;;5.73;54.52;96182.78;6319760;28;19961;-65
2022/03/30 13:06:08;;;;;;;;;;;;;;;5.74;54.34;96205.31;6320693;28;19934;-64
2022/03/30 13:09:12;;;;;;;;;;;;;;;5.62;54.43;96198.19;6319985;28;19920;-64
2022/03/30 13:12:18;;;;;;;;;;;;;;;5.55;54.73;96239.47;6320647;28;19920;-64
2022/03/30 13:15:25;;;;;;;;;;;;;;;5.59;54.33;96216.63;6320456;28;19924;-64
2022/03/30 13:18:29;;;;;;;;;;;;;;;5.61;54.30;96209.56;6320269;28;19924;-63
2022/03/30 13:21:36;;;;;;;;;;;;;;;5.33;55.28;96215.47;6319790;28;20020;-65
2022/03/30 13:24:48;;;;;;;;;;;;;;;5.24;55.54;96222.03;6321406;28;19927;-64
2022/03/30 13:27:54;;;;;;;;;;;;;;;5.28;54.96;96212.25;6324696;28;19920;-64
2022/03/30 13:30:56;;;;;;;;;;;;;;;5.21;55.43;96222.19;6325151;28;20285;-65
2022/03/30 13:33:58;;;;;;;;;;;;;;;5.03;55.89;96212.72;6324947;28;20388;-65
2022/03/30 13:37:01;;;;;;;;;;;;;;;4.93;56.20;96233.25;6324983;28;19997;-64
2022/03/30 13:40:04;;;;;;;;;;;;;;;4.75;56.52;96206.38;6324739;28;20002;-64
2022/03/30 13:43:06;;;;;;;;;;;;;;;4.85;56.45;96228.44;6324740;28;19920;-64
2022/03/30 13:46:07;;;;;;;;;;;;;;;4.85;56.92;96220.63;6324661;28;20297;-63
2022/03/30 13:49:10;;;;;;;;;;;;;;;4.76;57.11;96210.69;6324870;28;19920;-65
2022/03/30 13:52:15;;;;;;;;;;;;;;;4.82;57.29;96210.34;6324763;28;19920;-65
2022/03/30 13:55:16;;;;;;;;;;;;;;;4.65;57.61;96224.25;6324557;28;19926;-65
2022/03/30 13:58:17;;;;;;;;;;;;;;;4.63;57.83;96246.09;6322958;28;20448;-64
2022/03/30 14:01:21;;;;;;;;;;;;;;;4.61;58.20;96232.31;6324832;28;19924;-64
2022/03/30 14:04:22;;;;;;;;;;;;;;;4.52;58.56;96266.66;6324322;28;19920;-65
2022/03/30 14:07:26;;;;;;;;;;;;;;;4.56;58.93;96262.94;6323760;28;19926;-65
2022/03/30 14:10:27;;;;;;;;;;;;;;;4.48;59.02;96242.53;6324258;28;19920;-65
2022/03/30 14:13:28;;;;;;;;;;;;;;;4.38;59.74;96257.75;6324115;28;19919;-64
2022/03/30 14:16:29;;;;;;;;;;;;;;;4.42;60.00;96264.50;6322329;28;19920;-65
2022/03/30 14:19:31;;;;;;;;;;;;;;;4.35;59.97;96278.75;6323854;28;19943;-65
2022/03/30 14:22:32;;;;;;;;;;;;;;;4.45;59.90;96277.38;6324041;28;19920;-65
2022/03/30 14:25:34;;;;;;;;;;;;;;;4.41;60.06;96283.66;6322788;28;20369;-65
2022/03/30 14:28:36;;;;;;;;;;;;;;;4.41;60.45;96290.63;6323576;28;19924;-65
2022/03/30 14:31:40;;;;;;;;;;;;;;;4.29;60.67;96302.50;6324016;28;19920;-65
2022/03/30 14:34:42;;;;;;;;;;;;;;;4.23;61.17;96306.25;6322733;28;19920;-64
2022/03/30 14:37:46;;;;;;;;;;;;;;;4.17;61.65;96310.91;6323649;28;19916;-65
2022/03/30 14:40:51;;;;;;;;;;;;;;;4.31;61.68;96326.72;6323331;28;19924;-64
2022/03/30 14:43:52;;;;;;;;;;;;;;;4.42;61.47;96327.03;6322973;28;19942;-64
2022/03/30 14:46:53;;;;;;;;;;;;;;;4.24;61.89;96322.72;6323037;28;19920;-64
2022/03/30 14:49:57;;;;;;;;;;;;;;;4.33;62.06;96330.09;6323521;28;19924;-65
2022/03/30 14:53:01;;;;;;;;;;;;;;;4.18;62.56;96333.41;6323403;28;19919;-64
2022/03/30 14:56:07;;;;;;;;;;;;;;;4.16;62.53;96327.44;6323355;28;19920;-66
2022/03/30 14:59:12;;;;;;;;;;;;;;;4.16;62.90;96354.34;6323183;28;20311;-64
2022/03/30 15:02:13;;;;;;;;;;;;;;;4.22;63.07;96345.41;6321368;28;19931;-64
2022/03/30 15:05:15;;;;;;;;;;;;;;;4.16;63.33;96356.94;6323182;28;20469;-65
2022/03/30 15:08:19;;;;;;;;;;;;;;;4.17;63.56;96357.78;6323137;28;20404;-63
2022/03/30 15:11:22;;;;;;;;;;;;;;;4.11;64.04;96389.31;6323073;28;20278;-64
2022/03/30 15:14:23;;;;;;;;;;;;;;;4.02;64.23;96344.59;6322796;28;19967;-64
2022/03/30 15:17:24;;;;;;;;;;;;;;;4.07;64.40;96377.34;6322636;28;19924;-64
2022/03/30 15:20:28;;;;;;;;;;;;;;;4.14;64.46;96378.75;6322797;28;20364;-64
2022/03/30 15:23:34;;;;;;;;;;;;;;;4.01;64.92;96352.44;6322716;28;19928;-65
2022/03/30 15:26:35;;;;;;;;;;;;;;;3.98;65.10;96369.06;6321524;28;19923;-65
2022/03/30 15:29:43;;;;;;;;;;;;;;;4.00;65.10;96374.19;6323019;28;19920;-66
2022/03/30 15:32:48;;;;;;;;;;;;;;;4.07;65.17;96377.34;6322075;28;19952;-65
2022/03/30 15:35:53;;;;;;;;;;;;;;;4.08;65.35;96392.03;6322385;28;19920;-65
2022/03/30 15:39:00;;;;;;;;;;;;;;;4.02;65.45;96386.22;6322827;28;19926;-65
2022/03/30 15:42:01;;;;;;;;;;;;;;;4.02;65.68;96401.84;6321542;28;19920;-65
2022/03/30 15:45:03;;;;;;;;;;;;;;;3.94;65.88;96403.97;6321810;28;20403;-65
2022/03/30 15:48:07;;;;;;;;;;;;;;;3.98;65.84;96395.09;6320548;28;19927;-65
2022/03/30 15:51:13;;;;;;;;;;;;;;;4.06;65.82;96407.75;6321865;28;19924;-65
2022/03/30 15:54:18;;;;;;;;;;;;;;;4.02;65.91;96396.66;6321299;28;20073;-64
2022/03/30 15:57:19;;;;;;;;;;;;;;;4.08;65.87;96415.47;6321194;28;19927;-65
2022/03/30 16:00:23;;;;;;;;;;;;;;;3.94;66.27;96411.78;6320610;28;19926;-65
2022/03/30 16:03:24;;;;;;;;;;;;;;;4.08;66.13;96470.16;6320624;28;19930;-66
2022/03/30 16:06:27;;;;;;;;;;;;;;;4.11;65.67;96441.41;6320473;28;19927;-65
2022/03/30 16:09:35;;;;;;;;;;;;;;;4.10;65.91;96431.88;6320855;28;20290;-65
2022/03/30 16:12:36;;;;;;;;;;;;;;;4.12;65.52;96409.22;6320614;28;19926;-64